Time;durP1;ratioP1;P1;durP2;ratioP2;P2;SDS_P1;SDS_P2;PMS_P1;PMS_P2;Temp;Humidity;BMP_temperature;BMP_pressure;BME280_temperature;BME280_humidity;BME280_pressure;Samples;Min_cycle;Max_cycle;Signal;HPM_P1;HPM_P2
2022/09/26 00:01:17;;;;;;;3.47;0.98;;;;;;;13.07;70.53;92227.91;2067898;69;20141;-74
2022/09/26 00:03:46;;;;;;;1.00;0.90;;;;;;;13.06;70.72;92234.22;2067843;69;20140;-74
2022/09/26 00:06:12;;;;;;;1.00;0.90;;;;;;;13.09;70.07;92232.91;2067969;69;20172;-75
2022/09/26 00:08:41;;;;;;;2.13;1.00;;;;;;;13.07;70.87;92241.31;2067978;69;20144;-74
2022/09/26 00:11:10;;;;;;;1.45;1.10;;;;;;;13.03;70.98;92232.66;2068058;69;20269;-76
2022/09/26 00:13:38;;;;;;;2.85;1.10;;;;;;;13.03;71.32;92224.19;2068341;69;20140;-75
2022/09/26 00:16:05;;;;;;;2.28;1.20;;;;;;;12.96;71.95;92231.63;2067994;69;20277;-76
2022/09/26 00:18:32;;;;;;;1.58;1.08;;;;;;;12.98;71.36;92226.81;2064576;69;20250;-75
2022/09/26 00:21:10;;;;;;;1.50;1.10;;;;;;;13.02;70.96;92231.19;2065069;69;20152;-75
2022/09/26 00:23:38;;;;;;;2.08;0.90;;;;;;;12.93;71.54;92228.00;2068432;69;20152;-75
2022/09/26 00:26:05;;;;;;;1.00;0.80;;;;;;;12.96;70.43;92225.97;2064951;69;20168;-74
2022/09/26 00:28:31;;;;;;;0.98;0.60;;;;;;;12.94;71.26;92218.16;2068349;69;20148;-74
2022/09/26 00:31:12;;;;;;;1.35;0.70;;;;;;;12.85;71.77;92215.63;2064575;69;20145;-74
2022/09/26 00:33:38;;;;;;;2.58;0.70;;;;;;;12.88;71.19;92215.06;2064658;69;20199;-75
2022/09/26 00:36:04;;;;;;;1.70;0.80;;;;;;;12.87;70.99;92202.28;2064558;69;20255;-75
2022/09/26 00:38:30;;;;;;;2.15;0.70;;;;;;;12.88;70.37;92203.06;2068003;69;20171;-75
2022/09/26 00:40:55;;;;;;;0.95;0.70;;;;;;;12.83;71.27;92195.72;2064571;69;20141;-75
2022/09/26 00:43:35;;;;;;;0.65;0.60;;;;;;;12.81;72.12;92198.47;2064639;69;20462;-76
2022/09/26 00:46:22;;;;;;;1.83;0.77;;;;;;;12.84;70.67;92197.22;2067976;69;20210;-75
2022/09/26 00:48:55;;;;;;;1.15;0.70;;;;;;;12.79;71.50;92196.31;2064438;69;20184;-74
2022/09/26 00:51:21;;;;;;;0.63;0.60;;;;;;;12.79;70.97;92198.41;2061771;69;20240;-75
2022/09/26 00:53:51;;;;;;;1.25;0.70;;;;;;;12.78;70.91;92194.81;2068271;69;20149;-76
2022/09/26 00:56:25;;;;;;;0.82;0.60;;;;;;;12.79;71.36;92198.41;2064465;69;20140;-73
2022/09/26 00:59:01;;;;;;;1.38;0.70;;;;;;;12.80;70.30;92192.09;2064476;69;20169;-75
2022/09/26 01:01:27;;;;;;;1.98;0.70;;;;;;;12.69;71.89;92184.53;2064799;69;20216;-77
2022/09/26 01:03:53;;;;;;;1.15;0.68;;;;;;;12.70;70.79;92183.19;2064691;69;20145;-76
2022/09/26 01:06:20;;;;;;;1.10;0.77;;;;;;;12.72;70.66;92188.91;2068223;69;20155;-74
2022/09/26 01:08:58;;;;;;;1.88;0.90;;;;;;;12.66;70.60;92186.56;2064736;69;20156;-76
2022/09/26 01:11:26;;;;;;;1.15;0.70;;;;;;;12.69;70.84;92181.72;2065017;69;20151;-75
2022/09/26 01:13:53;;;;;;;0.60;0.60;;;;;;;12.64;71.25;92177.97;2067793;69;20176;-75
2022/09/26 01:16:21;;;;;;;1.15;0.63;;;;;;;12.65;70.50;92181.56;2068382;69;20222;-76
2022/09/26 01:18:47;;;;;;;0.60;0.55;;;;;;;12.66;70.50;92178.09;2067909;69;20160;-75
2022/09/26 01:21:28;;;;;;;0.52;0.52;;;;;;;12.68;70.82;92186.63;2064942;69;20152;-74
2022/09/26 01:23:59;;;;;;;1.15;0.60;;;;;;;12.62;71.91;92185.66;2067863;69;20147;-74
2022/09/26 01:26:28;;;;;;;1.40;0.60;;;;;;;12.54;72.19;92180.34;2067943;69;20203;-75
2022/09/26 01:29:26;;;;;;;1.30;0.60;;;;;;;12.53;72.24;92183.81;2064588;69;20140;-77
2022/09/26 01:35:05;;;;;;;1.30;0.65;;;;;;;12.53;71.39;92178.19;2064446;69;20210;-74
2022/09/26 01:37:58;;;;;;;2.25;0.50;;;;;;;12.53;70.90;92176.06;2061727;69;20644;-74
2022/09/26 01:40:41;;;;;;;1.40;0.80;;;;;;;12.52;71.54;92177.44;2066597;69;20475;-75
2022/09/26 01:43:38;;;;;;;1.27;0.57;;;;;;;12.44;72.40;92168.59;2067810;69;20231;-75
2022/09/26 01:46:22;;;;;;;1.58;0.70;;;;;;;12.50;70.96;92174.53;2070996;69;20151;-77
2022/09/26 01:49:07;;;;;;;1.13;0.70;;;;;;;12.47;71.41;92167.34;2071363;69;20524;-76
2022/09/26 01:51:53;;;;;;;0.63;0.60;;;;;;;12.44;71.71;92169.34;2068347;69;20136;-77
2022/09/26 01:54:43;;;;;;;0.68;0.60;;;;;;;12.37;72.29;92167.63;2071511;69;20543;-76
2022/09/26 01:57:14;;;;;;;0.80;0.60;;;;;;;12.38;72.35;92162.69;2068046;69;20235;-76
2022/09/26 01:59:47;;;;;;;0.70;0.57;;;;;;;12.39;71.29;92159.22;2068364;69;20144;-77
2022/09/26 02:02:18;;;;;;;;;;;;;;;12.34;72.32;92157.59;2068094;69;20164;-76
2022/09/26 02:04:47;;;;;;;2.25;0.80;;;;;;;12.35;70.92;92152.66;2067678;69;20122;-76
2022/09/26 02:07:20;;;;;;;0.60;0.60;;;;;;;12.29;70.82;92153.13;2067641;69;20534;-75
2022/09/26 02:10:04;;;;;;;5.57;0.60;;;;;;;12.18;72.66;92157.56;2067817;69;20144;-75
2022/09/26 02:12:35;;;;;;;2.42;0.70;;;;;;;12.19;72.78;92150.56;2067511;69;20183;-75
2022/09/26 02:15:06;;;;;;;0.52;0.52;;;;;;;12.21;72.27;92155.56;2071046;69;20145;-76
2022/09/26 02:17:46;;;;;;;0.90;0.50;;;;;;;12.23;72.15;92149.28;2067748;69;20204;-75
2022/09/26 02:20:22;;;;;;;2.25;0.80;;;;;;;12.25;71.65;92146.56;2067854;69;20248;-75
2022/09/26 02:22:48;;;;;;;1.10;1.00;;;;;;;12.22;72.08;92148.56;2071596;69;20548;-76
2022/09/26 02:25:15;;;;;;;0.93;0.65;;;;;;;12.24;70.83;92145.13;2071519;69;20140;-77
2022/09/26 02:27:42;;;;;;;0.85;0.70;;;;;;;12.23;71.22;92144.38;2071510;69;20156;-76
2022/09/26 02:30:10;;;;;;;0.60;0.60;;;;;;;12.21;71.89;92145.00;2065452;69;20592;-75
2022/09/26 02:32:36;;;;;;;1.10;0.70;;;;;;;12.24;71.61;92139.47;2071829;69;20121;-76
2022/09/26 02:37:51;;;;;;;1.75;0.70;;;;;;;11.98;73.96;92144.63;2071585;69;20155;-75
2022/09/26 02:40:19;;;;;;;1.40;0.85;;;;;;;12.18;71.59;92137.09;2065545;69;20212;-75
2022/09/26 02:42:56;;;;;;;1.25;0.90;;;;;;;12.27;70.84;92141.00;2067975;69;20306;-76
2022/09/26 02:45:32;;;;;;;2.15;0.60;;;;;;;12.22;72.13;92137.28;2071911;69;20133;-75
2022/09/26 02:48:26;;;;;;;0.80;0.70;;;;;;;12.18;72.15;92140.63;2068611;69;20141;-75
2022/09/26 02:51:02;;;;;;;3.22;0.77;;;;;;;12.15;72.66;92139.09;2071735;69;20148;-75
2022/09/26 02:53:40;;;;;;;1.20;1.10;;;;;;;12.16;72.18;92134.91;2068143;69;20155;-75
2022/09/26 02:56:22;;;;;;;1.48;0.80;;;;;;;12.20;71.65;92137.91;2067785;69;20132;-75
2022/09/26 02:59:20;;;;;;;1.63;0.80;;;;;;;12.17;72.99;92139.19;2065144;69;20144;-75
2022/09/26 03:02:00;;;;;;;2.60;0.80;;;;;;;12.16;72.83;92134.91;2067950;69;20317;-73
2022/09/26 03:04:40;;;;;;;2.20;0.82;;;;;;;12.17;71.90;92138.44;2067824;69;20156;-75
2022/09/26 03:07:15;;;;;;;1.00;0.77;;;;;;;12.20;71.43;92137.91;2067874;69;20220;-75
2022/09/26 03:09:42;;;;;;;0.60;0.60;;;;;;;12.14;72.97;92134.81;2067907;69;20144;-75
2022/09/26 03:12:09;;;;;;;1.65;0.55;;;;;;;12.13;72.00;92127.69;2067773;69;20136;-74
2022/09/26 03:14:41;;;;;;;0.80;0.68;;;;;;;12.18;71.49;92125.78;2067964;69;20129;-75
2022/09/26 03:17:08;;;;;;;0.60;0.60;;;;;;;12.15;71.90;92127.81;2067827;69;20144;-75
2022/09/26 03:19:42;;;;;;;0.95;0.80;;;;;;;12.15;71.64;92122.16;2067747;69;20199;-76
2022/09/26 03:22:08;;;;;;;1.13;0.93;;;;;;;12.12;71.68;92119.88;2065004;69;20140;-75
2022/09/26 03:24:35;;;;;;;0.93;0.60;;;;;;;12.03;71.40;92120.88;2067784;69;20164;-76
2022/09/26 03:27:05;;;;;;;0.52;0.52;;;;;;;12.02;72.03;92117.34;2071028;69;20575;-76
2022/09/26 03:29:32;;;;;;;1.13;0.68;;;;;;;12.04;71.67;92119.50;2068015;69;20761;-75
2022/09/26 03:31:59;;;;;;;1.80;0.60;;;;;;;11.95;72.72;92118.41;2065097;69;20236;-75
2022/09/26 03:34:26;;;;;;;1.95;0.70;;;;;;;11.91;71.84;92127.44;2067820;69;20216;-75
2022/09/26 03:36:52;;;;;;;1.27;0.80;;;;;;;11.88;72.59;92125.88;2067782;69;20156;-76
2022/09/26 03:39:18;;;;;;;2.05;0.50;;;;;;;11.84;72.79;92124.94;2071148;69;20503;-75
2022/09/26 03:41:58;;;;;;;1.70;0.60;;;;;;;11.82;71.80;92127.63;2067635;69;20136;-75
2022/09/26 03:44:25;;;;;;;0.57;0.43;;;;;;;11.69;72.51;92120.72;2067667;69;20242;-76
2022/09/26 03:47:03;;;;;;;0.90;0.50;;;;;;;11.70;71.17;92105.25;2071113;69;20160;-76
2022/09/26 03:49:29;;;;;;;0.47;0.40;;;;;;;11.70;71.22;92105.25;2067746;69;20179;-76
2022/09/26 03:51:54;;;;;;;1.00;0.40;;;;;;;11.64;72.41;92104.97;2071157;69;20263;-76
2022/09/26 03:54:23;;;;;;;0.70;0.50;;;;;;;11.65;71.71;92101.50;2067716;69;20136;-75
2022/09/26 03:56:49;;;;;;;1.05;0.50;;;;;;;11.58;72.31;92096.19;2068045;69;20137;-76
2022/09/26 03:59:15;;;;;;;0.60;0.40;;;;;;;11.52;72.39;92093.81;2068285;69;20160;-73
2022/09/26 04:01:42;;;;;;;2.20;0.43;;;;;;;11.55;71.05;92091.84;2068363;69;20145;-75
2022/09/26 04:04:07;;;;;;;5.18;0.60;;;;;;;11.48;72.01;92098.53;2071800;69;20187;-76
2022/09/26 04:06:33;;;;;;;0.80;0.60;;;;;;;11.47;71.48;92097.81;2065500;69;20488;-75
2022/09/26 04:09:00;;;;;;;0.90;0.50;;;;;;;11.39;71.66;92098.16;2068266;69;20221;-75
2022/09/26 04:11:27;;;;;;;1.30;0.70;;;;;;;11.37;71.32;92102.97;2068141;69;20152;-75
2022/09/26 04:13:54;;;;;;;3.70;0.52;;;;;;;11.27;71.95;92105.28;2068227;69;20152;-75
2022/09/26 04:16:23;;;;;;;1.35;0.60;;;;;;;11.22;71.82;92098.00;2068241;69;20205;-75
2022/09/26 04:18:56;;;;;;;0.38;0.38;;;;;;;11.24;71.75;92101.66;2068238;69;20247;-76
2022/09/26 04:21:23;;;;;;;1.08;0.30;;;;;;;11.21;72.05;92091.63;2068275;69;20156;-76
2022/09/26 04:23:55;;;;;;;0.40;0.40;;;;;;;11.18;71.87;92099.28;2068216;69;20137;-76
2022/09/26 04:26:22;;;;;;;0.90;0.55;;;;;;;11.18;72.20;92088.00;2068056;69;20148;-76
2022/09/26 04:28:49;;;;;;;3.08;1.10;;;;;;;11.19;72.01;92091.53;2068135;69;20217;-77
2022/09/26 04:31:15;;;;;;;1.80;0.60;;;;;;;11.27;71.55;92082.75;2068207;69;20186;-76
2022/09/26 04:33:49;;;;;;;1.20;0.60;;;;;;;11.21;71.92;92094.44;2068212;69;20164;-76
2022/09/26 04:36:16;;;;;;;0.50;0.50;;;;;;;11.19;71.89;92083.81;2068202;69;20234;-76
2022/09/26 04:38:42;;;;;;;3.85;1.10;;;;;;;11.27;71.67;92080.69;2071499;69;20244;-76
2022/09/26 04:41:13;;;;;;;1.70;1.60;;;;;;;11.26;72.28;92075.66;2068121;69;20140;-75
2022/09/26 04:43:39;;;;;;;2.17;1.60;;;;;;;11.22;72.90;92076.19;2068083;69;20239;-74
2022/09/26 04:46:15;;;;;;;3.33;1.70;;;;;;;11.24;72.21;92072.75;2068215;69;20245;-75
2022/09/26 04:48:43;;;;;;;5.93;1.63;;;;;;;11.28;72.03;92067.31;2068185;69;20168;-74
2022/09/26 04:51:19;;;;;;;2.72;1.52;;;;;;;11.25;72.77;92080.56;2068063;69;20156;-75
2022/09/26 04:53:47;;;;;;;1.88;1.60;;;;;;;11.16;73.13;92068.16;2071605;69;20151;-76
2022/09/26 04:56:35;;;;;;;1.02;0.93;;;;;;;11.24;73.71;92076.28;2069901;69;20360;-74
2022/09/26 04:59:03;;;;;;;1.27;0.90;;;;;;;11.28;72.41;92078.59;2068043;69;20232;-76
2022/09/26 05:01:37;;;;;;;1.98;0.90;;;;;;;11.36;71.70;92076.88;2068138;69;20144;-74
2022/09/26 05:04:11;;;;;;;1.20;1.00;;;;;;;11.30;72.62;92073.75;2067973;69;20616;-75
2022/09/26 05:06:38;;;;;;;2.65;1.23;;;;;;;11.28;72.62;92087.03;2067977;69;20530;-74
2022/09/26 05:09:06;;;;;;;4.60;3.05;;;;;;;10.67;77.88;92084.75;2068119;69;20151;-76
2022/09/26 05:11:57;;;;;;;3.55;2.70;;;;;;;11.17;74.01;92092.16;2070613;69;20673;-75
2022/09/26 05:14:24;;;;;;;2.80;2.50;;;;;;;11.16;74.60;92090.72;2068040;69;20164;-75
2022/09/26 05:16:52;;;;;;;2.75;2.30;;;;;;;11.23;74.00;92082.56;2068018;69;20232;-75
2022/09/26 05:19:20;;;;;;;4.03;2.28;;;;;;;11.26;72.90;92076.38;2071388;69;20187;-76
2022/09/26 05:22:04;;;;;;;2.72;1.80;;;;;;;11.29;72.34;92077.22;2071499;69;20559;-74
2022/09/26 05:27:18;;;;;;;3.08;1.80;;;;;;;11.40;72.08;92073.50;2067974;69;20504;-75
2022/09/26 05:29:44;;;;;;;2.45;1.90;;;;;;;11.29;73.08;92077.22;2068016;69;20159;-76
2022/09/26 05:32:10;;;;;;;2.33;2.10;;;;;;;11.18;74.09;92081.66;2068068;69;20157;-75
2022/09/26 05:34:37;;;;;;;2.30;1.80;;;;;;;11.17;74.29;92085.78;2067981;69;20150;-76
2022/09/26 05:37:04;;;;;;;3.65;1.80;;;;;;;11.27;73.11;92082.75;2067976;69;20144;-76
2022/09/26 05:42:15;;;;;;;3.80;1.70;;;;;;;10.94;75.58;92092.44;2067857;69;20611;-76
2022/09/26 05:44:41;;;;;;;2.63;1.70;;;;;;;11.17;73.50;92080.88;2071385;69;20180;-76
2022/09/26 05:47:08;;;;;;;2.25;1.50;;;;;;;11.24;73.43;92078.38;2067948;69;20154;-76
2022/09/26 05:49:35;;;;;;;2.65;1.80;;;;;;;11.25;73.28;92074.94;2067914;69;20217;-76
2022/09/26 05:52:02;;;;;;;5.50;1.98;;;;;;;11.16;73.86;92079.44;2067955;69;20164;-76
2022/09/26 05:54:28;;;;;;;2.80;2.10;;;;;;;11.21;74.18;92077.53;2067888;69;20148;-75
2022/09/26 05:56:55;;;;;;;2.55;2.33;;;;;;;11.28;72.87;92082.13;2067885;69;20326;-74
2022/09/26 05:59:26;;;;;;;3.78;1.88;;;;;;;11.22;73.70;92069.81;2071357;69;20132;-75
2022/09/26 06:02:11;;;;;;;2.10;1.70;;;;;;;11.24;73.24;92069.94;2071438;69;20143;-76
2022/09/26 06:04:57;;;;;;;5.55;2.70;;;;;;;11.20;74.20;92065.56;2067937;69;20160;-75
2022/09/26 06:07:52;;;;;;;5.47;3.33;;;;;;;11.26;73.70;92070.75;2068726;69;20217;-76
2022/09/26 06:10:39;;;;;;;4.15;1.80;;;;;;;11.32;71.98;92068.22;2071235;69;20275;-76
2022/09/26 06:13:06;;;;;;;4.40;3.60;;;;;;;11.23;74.06;92071.31;2071265;69;20239;-76
2022/09/26 06:15:42;;;;;;;4.97;2.92;;;;;;;11.30;73.87;92070.94;2067924;69;20186;-76
2022/09/26 06:18:08;;;;;;;2.63;1.83;;;;;;;11.38;72.73;92076.25;2071168;69;20605;-76
2022/09/26 06:20:33;;;;;;;3.83;1.63;;;;;;;11.40;73.76;92074.25;2064097;69;20157;-75
2022/09/26 06:23:00;;;;;;;4.75;3.00;;;;;;;11.43;72.79;92072.97;2064067;69;20574;-76
2022/09/26 06:25:26;;;;;;;5.75;4.20;;;;;;;11.43;73.23;92075.06;2063950;69;20172;-77
2022/09/26 06:27:56;;;;;;;6.88;4.32;;;;;;;11.39;74.66;92064.34;2064054;69;20168;-76
2022/09/26 06:30:23;;;;;;;5.63;3.85;;;;;;;11.47;73.18;92057.63;2064544;69;20168;-77
2022/09/26 06:32:52;;;;;;;7.53;3.78;;;;;;;11.42;73.91;92048.25;2064072;69;20311;-76
2022/09/26 06:35:37;;;;;;;5.28;3.63;;;;;;;11.40;73.42;92053.78;2058811;69;20184;-75
2022/09/26 06:38:16;;;;;;;14.88;8.07;;;;;;;11.11;75.80;92043.25;2063957;69;20148;-75
2022/09/26 06:40:41;;;;;;;15.88;8.15;;;;;;;11.07;74.89;92043.78;2061109;69;20165;-76
2022/09/26 06:43:07;;;;;;;11.52;7.40;;;;;;;11.40;73.01;92059.41;2063916;69;20153;-75
2022/09/26 06:46:04;;;;;;;10.57;6.25;;;;;;;11.44;72.90;92059.63;2054990;69;20201;-76
2022/09/26 06:48:39;;;;;;;8.82;6.28;;;;;;;11.45;73.72;92052.63;2064003;69;20561;-75
2022/09/26 06:51:15;;;;;;;13.15;6.97;;;;;;;11.53;73.30;92057.91;2064094;69;20148;-77
2022/09/26 06:53:44;;;;;;;8.63;5.60;;;;;;;11.50;74.23;92057.09;2064062;69;20161;-75
2022/09/26 06:56:13;;;;;;;7.03;5.03;;;;;;;11.55;74.06;92058.03;2063910;69;20181;-76
2022/09/26 06:58:39;;;;;;;5.38;3.58;;;;;;;11.31;74.42;92055.50;2063939;69;20577;-77
2022/09/26 07:01:05;;;;;;;8.27;3.92;;;;;;;10.98;77.72;92070.09;2063905;69;20151;-77
2022/09/26 07:03:40;;;;;;;5.60;3.88;;;;;;;11.30;76.89;92059.66;2064453;69;20556;-72
2022/09/26 07:06:22;;;;;;;10.43;7.90;;;;;;;11.76;73.53;92057.59;2064613;69;20221;-73
2022/09/26 07:08:51;;;;;;;12.77;7.15;;;;;;;11.90;72.90;92057.53;2064562;69;20625;-75
2022/09/26 07:11:21;;;;;;;6.68;4.70;;;;;;;12.05;73.16;92053.25;2063929;69;20501;-75
2022/09/26 07:13:47;;;;;;;8.02;4.82;;;;;;;12.18;72.36;92049.63;2064513;69;20157;-75
2022/09/26 07:16:13;;;;;;;8.05;4.90;;;;;;;11.97;72.93;92058.56;2063980;69;20632;-76
2022/09/26 07:19:11;;;;;;;9.13;6.18;;;;;;;11.68;76.20;92054.38;2063170;69;20240;-75
2022/09/26 07:21:54;;;;;;;12.27;5.47;;;;;;;11.86;75.05;92051.69;2071307;69;20156;-75
2022/09/26 07:24:26;;;;;;;;;;;;;;;12.17;72.86;92048.16;2067941;69;20226;-75
2022/09/26 07:26:52;;;;;;;8.93;5.50;;;;;;;12.30;72.47;92052.97;2067851;69;20089;-75
2022/09/26 07:29:18;;;;;;;7.25;4.90;;;;;;;12.38;71.26;92052.63;2067788;69;20148;-76
2022/09/26 07:31:44;;;;;;;8.23;5.78;;;;;;;12.48;70.80;92047.41;2068157;69;20194;-75
2022/09/26 07:34:35;;;;;;;9.70;6.25;;;;;;;12.29;72.95;92056.44;2068394;69;20156;-75
2022/09/26 07:37:00;;;;;;;6.30;4.60;;;;;;;12.34;71.93;92049.63;2068289;69;20148;-75
2022/09/26 07:39:27;;;;;;;6.40;4.05;;;;;;;12.41;72.84;92046.41;2068295;69;20149;-74
2022/09/26 07:41:52;;;;;;;3.95;2.90;;;;;;;12.56;72.02;92047.03;2068274;69;20168;-75
2022/09/26 07:44:18;;;;;;;3.78;3.33;;;;;;;12.18;73.01;92044.69;2068238;69;20144;-76
2022/09/26 07:52:21;;;;;;;5.85;3.40;;;;;;;13.15;68.58;92035.38;2071666;69;20171;-77
2022/09/26 07:55:18;;;;;;;3.85;2.83;;;;;;;13.26;66.60;92030.88;2061785;69;20488;-77
2022/09/26 07:57:50;;;;;;;2.55;2.15;;;;;;;13.27;67.58;92030.22;2068256;69;20137;-77
2022/09/26 08:00:29;;;;;;;5.10;2.20;;;;;;;13.35;66.66;92035.47;2068308;69;20213;-77
2022/09/26 08:03:14;;;;;;;4.28;2.20;;;;;;;13.55;67.02;92032.72;2064255;69;20171;-77
2022/09/26 08:05:42;;;;;;;3.05;2.45;;;;;;;13.55;67.08;92033.44;2068286;69;20183;-77
2022/09/26 08:08:08;;;;;;;3.50;2.50;;;;;;;13.69;64.83;92024.78;2068241;69;20140;-75
2022/09/26 08:10:55;;;;;;;2.92;2.10;;;;;;;13.85;65.75;92025.41;2071493;69;20263;-78
2022/09/26 08:13:36;;;;;;;3.17;2.47;;;;;;;13.76;65.88;92020.81;2071771;69;20180;-78
2022/09/26 08:16:22;;;;;;;6.47;3.33;;;;;;;13.76;66.35;92018.00;2071643;69;20285;-77
2022/09/26 08:18:52;;;;;;;7.68;4.22;;;;;;;14.13;65.84;92017.25;2068130;69;20209;-77
2022/09/26 08:21:18;;;;;;;2.40;1.75;;;;;;;13.99;65.14;92017.47;2068276;69;20144;-77
2022/09/26 08:23:47;;;;;;;1.77;1.63;;;;;;;14.23;64.50;92022.56;2068121;69;20167;-75
2022/09/26 08:26:32;;;;;;;2.50;1.75;;;;;;;14.54;64.04;92018.75;2071502;69;20229;-77
2022/09/26 08:29:03;;;;;;;1.40;1.17;;;;;;;14.41;63.55;92020.38;2068175;69;20152;-76
2022/09/26 08:31:30;;;;;;;2.95;1.67;;;;;;;14.22;64.79;92021.84;2071541;69;20532;-77
2022/09/26 08:33:57;;;;;;;3.53;2.13;;;;;;;14.61;63.20;92020.41;2068248;69;20144;-77
2022/09/26 08:36:22;;;;;;;2.53;1.70;;;;;;;14.93;62.41;92008.72;2068125;69;20562;-76
2022/09/26 08:39:11;;;;;;;3.55;1.45;;;;;;;14.89;62.96;92012.19;2066267;69;20151;-74
2022/09/26 08:42:00;;;;;;;3.25;1.90;;;;;;;14.77;61.52;92008.91;2071327;69;20144;-75
2022/09/26 08:46:29;;;;;;;2.38;1.95;;;;;;;15.34;61.03;92012.91;2071319;69;20194;-75
2022/09/26 08:48:36;;;;;;;2.17;1.80;;;;;;;15.52;61.90;92007.81;2067323;69;20171;-75
2022/09/26 08:51:45;;;;;;;2.30;1.80;;;;;;;15.85;62.55;92006.75;2068158;69;20155;-75
2022/09/26 08:54:25;;;;;;;2.75;1.90;;;;;;;16.05;61.00;92005.91;2064411;69;20144;-75
2022/09/26 08:57:01;;;;;;;2.75;1.20;;;;;;;16.21;59.96;92004.25;2071401;69;20148;-76
2022/09/26 08:59:34;;;;;;;1.00;0.90;;;;;;;16.29;59.52;92000.19;2068103;69;20480;-76
2022/09/26 09:02:17;;;;;;;1.70;1.58;;;;;;;16.65;59.44;91995.53;2068009;69;20190;-76
2022/09/26 09:05:17;;;;;;;5.45;2.15;;;;;;;16.53;56.96;91998.03;2068065;69;20554;-76
2022/09/26 09:07:47;;;;;;;2.38;1.40;;;;;;;16.43;58.45;91980.72;2066173;69;20180;-75
2022/09/26 09:10:20;;;;;;;2.20;1.70;;;;;;;17.19;58.00;91978.47;2068000;69;20234;-76
2022/09/26 09:13:06;;;;;;;2.65;1.80;;;;;;;17.31;56.06;91971.63;2071719;69;20151;-76
2022/09/26 09:16:11;;;;;;;2.42;1.92;;;;;;;17.40;54.92;91965.47;2071538;69;20186;-76
2022/09/26 09:19:18;;;;;;;1.63;1.30;;;;;;;16.94;55.91;91962.19;2068056;69;20141;-76
2022/09/26 09:22:31;;;;;;;2.70;1.10;;;;;;;17.82;54.82;91961.47;2071585;69;20500;-76
2022/09/26 09:25:02;;;;;;;1.63;1.10;;;;;;;18.88;52.75;91963.66;2068156;69;20213;-76
2022/09/26 09:27:43;;;;;;;4.03;1.98;;;;;;;18.56;50.00;91958.03;2067947;69;20144;-76
2022/09/26 09:30:37;;;;;;;1.17;0.90;;;;;;;19.18;49.83;91952.03;2068056;69;20454;-76
2022/09/26 09:33:20;;;;;;;2.97;0.93;;;;;;;20.19;50.87;91949.31;2068019;69;20144;-76
2022/09/26 09:35:55;;;;;;;1.77;1.30;;;;;;;19.92;47.09;91943.22;2068093;69;20152;-76
2022/09/26 09:38:47;;;;;;;1.02;0.88;;;;;;;20.01;46.50;91941.94;2069456;69;20248;-76
2022/09/26 09:41:36;;;;;;;2.33;1.00;;;;;;;20.78;46.75;91944.34;2068028;69;20222;-76
2022/09/26 09:44:31;;;;;;;2.10;1.20;;;;;;;21.38;45.61;91932.06;2071350;69;20141;-76
2022/09/26 09:46:57;;;;;;;1.38;0.80;;;;;;;21.81;41.38;91923.81;2068997;69;20132;-74
2022/09/26 09:49:23;;;;;;;0.50;0.50;;;;;;;21.20;43.33;91915.41;2068054;69;20230;-77
2022/09/26 09:52:07;;;;;;;0.88;0.70;;;;;;;20.99;41.30;91908.81;2071406;69;20152;-76
2022/09/26 09:54:39;;;;;;;0.82;0.70;;;;;;;22.24;41.86;91907.59;2071147;69;20729;-76
2022/09/26 09:57:39;;;;;;;3.35;0.90;;;;;;;22.06;40.30;91901.75;2067963;69;20148;-77
2022/09/26 10:00:31;;;;;;;0.57;0.55;;;;;;;21.82;41.08;91900.19;2068032;69;20136;-76
2022/09/26 10:03:24;;;;;;;0.93;0.70;;;;;;;22.50;40.42;91895.53;2067984;69;20485;-75
2022/09/26 10:05:56;;;;;;;1.83;0.68;;;;;;;23.13;39.93;91895.00;2068059;69;20152;-75
2022/09/26 10:08:35;;;;;;;1.17;0.93;;;;;;;22.36;37.40;91889.00;2068084;69;20206;-76
2022/09/26 10:11:22;;;;;;;1.88;1.00;;;;;;;23.23;39.62;91883.53;2071378;69;20549;-77
2022/09/26 10:14:02;;;;;;;2.08;1.00;;;;;;;24.09;38.83;91886.34;2071484;69;20473;-75
2022/09/26 10:17:07;;;;;;;2.20;1.60;;;;;;;24.20;37.71;91887.06;2064166;69;20148;-76
2022/09/26 10:19:37;;;;;;;2.20;1.45;;;;;;;24.63;37.57;91889.81;2068008;69;20511;-77
2022/09/26 10:22:08;;;;;;;3.65;1.90;;;;;;;23.94;36.46;91882.09;2068102;69;20611;-76
2022/09/26 10:24:42;;;;;;;36.72;2.30;;;;;;;24.41;38.02;91873.34;2068179;69;20155;-75
2022/09/26 10:27:17;;;;;;;1.63;1.23;;;;;;;24.95;36.77;91868.78;2067906;69;20174;-76
2022/09/26 10:29:46;;;;;;;1.60;1.10;;;;;;;23.98;35.02;91871.28;2071458;69;20172;-76
2022/09/26 10:32:12;;;;;;;1.17;0.98;;;;;;;24.48;33.87;91880.53;2067908;69;20149;-77
2022/09/26 10:35:00;;;;;;;0.80;0.73;;;;;;;24.64;35.37;91862.47;2067962;69;20532;-76
2022/09/26 10:37:30;;;;;;;1.63;1.15;;;;;;;24.80;34.54;91859.50;2067861;69;20154;-77
2022/09/26 10:40:45;;;;;;;2.90;1.13;;;;;;;23.31;36.59;91863.44;2067859;69;20235;-76
2022/09/26 10:43:21;;;;;;;2.13;1.30;;;;;;;22.61;38.92;91856.13;2068006;69;20145;-76
2022/09/26 11:11:35;;;;;;;2.70;1.40;;;;;;;22.33;40.48;91822.34;2050735;70;20297;-75
2022/09/26 11:14:06;;;;;;;3.17;2.08;;;;;;;22.50;40.21;91806.66;2050362;70;20150;-76
2022/09/26 11:16:50;;;;;;;4.57;1.50;;;;;;;25.45;38.70;91809.41;2050327;70;20142;-76
2022/09/26 11:19:47;;;;;;;2.25;1.45;;;;;;;26.31;35.86;91797.72;2050458;70;20597;-77
2022/09/26 11:22:18;;;;;;;1.77;1.20;;;;;;;27.08;34.06;91793.13;2050424;70;20188;-77
2022/09/26 11:24:58;;;;;;;1.23;1.00;;;;;;;26.00;31.85;91788.72;2050656;70;20150;-77
2022/09/26 11:27:30;;;;;;;1.00;0.80;;;;;;;27.71;32.27;91794.25;2050638;70;20249;-78
2022/09/26 11:30:09;;;;;;;1.10;0.90;;;;;;;27.11;32.45;91792.34;2051195;70;20150;-78
2022/09/26 11:32:43;;;;;;;1.42;1.02;;;;;;;27.20;32.95;91787.16;2051192;70;20605;-77
2022/09/26 11:36:09;;;;;;;1.63;0.80;;;;;;;25.72;31.52;91778.19;2039802;70;20154;-78
2022/09/26 11:38:49;;;;;;;0.70;0.60;;;;;;;27.76;29.86;91779.00;2049537;70;20186;-77
2022/09/26 11:41:40;;;;;;;0.68;0.50;;;;;;;27.16;30.87;91772.78;2047534;70;20249;-77
2022/09/26 11:44:16;;;;;;;1.90;0.70;;;;;;;28.59;29.27;91770.94;2049785;70;20285;-78
2022/09/26 11:47:18;;;;;;;0.77;0.70;;;;;;;28.30;30.07;91764.25;2050121;70;20189;-78
2022/09/26 11:50:10;;;;;;;1.13;0.50;;;;;;;26.21;28.05;91745.94;2050681;70;20240;-75
2022/09/26 11:53:11;;;;;;;1.17;0.40;;;;;;;26.14;30.03;91744.56;2050636;70;20204;-78
2022/09/26 11:55:59;;;;;;;0.60;0.50;;;;;;;25.78;31.46;91738.50;2050383;70;20563;-77
2022/09/26 11:58:42;;;;;;;0.60;0.60;;;;;;;24.89;31.32;91719.84;2053234;70;20131;-78
2022/09/26 12:01:54;;;;;;;0.60;0.60;;;;;;;27.10;30.00;91721.59;2050552;70;20189;-77
2022/09/26 12:05:02;;;;;;;1.83;0.80;;;;;;;26.82;29.52;91714.06;2049234;70;20600;-76
2022/09/26 12:08:05;;;;;;;1.30;0.90;;;;;;;27.02;30.31;91709.44;2045641;70;20577;-77
2022/09/26 12:10:40;;;;;;;1.10;0.95;;;;;;;25.79;29.75;91711.09;2049854;70;20226;-77
2022/09/26 12:13:28;;;;;;;1.08;0.90;;;;;;;24.81;32.41;91697.59;2050516;70;20178;-76
2022/09/26 12:16:00;;;;;;;2.05;0.98;;;;;;;25.13;34.04;91698.81;2050686;70;20742;-78
2022/09/26 12:18:59;;;;;;;1.35;0.93;;;;;;;25.74;32.56;91691.69;2051064;70;20495;-77
2022/09/26 12:24:54;;;;;;;1.35;0.80;;;;;;;24.27;35.06;91682.13;2050836;70;20645;-76
2022/09/26 12:27:24;;;;;;;2.55;1.00;;;;;;;24.88;32.09;91680.28;2050419;70;20170;-76
2022/09/26 12:30:02;;;;;;;1.10;0.80;;;;;;;24.56;32.61;91673.38;2050609;70;20177;-75
2022/09/26 12:32:47;;;;;;;1.35;0.88;;;;;;;24.64;33.88;91663.94;2050530;70;20253;-76
2022/09/26 12:35:28;;;;;;;2.58;0.80;;;;;;;23.94;31.84;91669.41;2050713;70;20182;-76
2022/09/26 12:38:14;;;;;;;0.95;0.70;;;;;;;23.92;33.84;91667.25;2050746;70;20170;-76
2022/09/26 12:40:56;;;;;;;2.20;0.90;;;;;;;22.40;34.54;91657.50;2050546;70;20581;-77
2022/09/26 12:43:39;;;;;;;1.15;0.80;;;;;;;23.73;33.11;91655.16;2051050;70;20201;-77
2022/09/26 12:46:21;;;;;;;2.10;0.90;;;;;;;22.85;34.82;91654.63;2050656;70;20146;-74
2022/09/26 12:49:28;;;;;;;1.27;0.90;;;;;;;22.86;34.74;91650.31;2050460;70;20162;-76
2022/09/26 12:52:03;;;;;;;0.98;0.80;;;;;;;22.37;34.38;91641.75;2039432;70;20171;-73
2022/09/26 12:54:44;;;;;;;1.27;0.80;;;;;;;22.68;36.75;91644.59;2039213;70;20211;-76
2022/09/26 12:57:45;;;;;;;0.98;0.80;;;;;;;23.15;34.49;91644.56;2040052;70;20242;-77
2022/09/26 13:00:21;;;;;;;1.30;0.88;;;;;;;22.67;37.44;91646.75;2040656;70;20150;-76
2022/09/26 13:03:12;;;;;;;1.25;0.80;;;;;;;22.88;36.81;91627.38;2040201;70;20199;-76